createdAt,value
2023-05-07T00:00:10.992Z,37.67
2023-05-07T00:02:38.980Z,32.08
2023-05-07T00:05:07.716Z,31.08
2023-05-07T00:07:35.499Z,28.60
2023-05-07T00:10:03.823Z,30.35
2023-05-07T00:12:32.636Z,29.80
2023-05-07T00:15:00.626Z,31.70
2023-05-07T00:17:28.094Z,30.85
2023-05-07T00:19:55.147Z,28.75
2023-05-07T00:22:22.540Z,32.92
2023-05-07T00:24:49.615Z,29.60
2023-05-07T00:27:17.135Z,30.38
2023-05-07T00:29:44.291Z,31.27
2023-05-07T00:32:11.648Z,28.70
2023-05-07T00:34:40.542Z,31.98
2023-05-07T00:37:10.286Z,32.00
2023-05-07T00:39:37.511Z,32.33
2023-05-07T00:42:04.979Z,32.05
2023-05-07T00:44:31.908Z,37.92
2023-05-07T00:46:59.155Z,37.67
2023-05-07T00:49:45.674Z,36.13
2023-05-07T00:52:16.814Z,37.80
2023-05-07T00:54:56.650Z,39.88
2023-05-07T00:57:26.467Z,40.92
2023-05-07T00:59:54.375Z,42.13
2023-05-07T01:02:22.239Z,36.45
2023-05-07T01:04:49.339Z,37.78
2023-05-07T01:07:17.006Z,37.60
2023-05-07T01:09:44.183Z,33.78
2023-05-07T01:12:12.482Z,31.88
2023-05-07T01:14:39.878Z,30.85
2023-05-07T01:17:07.743Z,31.67
2023-05-07T01:19:35.786Z,32.08
2023-05-07T01:22:08.916Z,30.65
2023-05-07T01:24:45.647Z,32.30
2023-05-07T01:27:14.571Z,27.63
2023-05-07T01:29:42.253Z,28.48
2023-05-07T01:32:11.141Z,29.42
2023-05-07T01:34:38.681Z,27.65
2023-05-07T01:37:06.305Z,31.08
2023-05-07T01:39:34.528Z,30.33
2023-05-07T01:42:02.666Z,29.45
2023-05-07T01:44:30.097Z,29.60
2023-05-07T01:46:59.202Z,27.27
2023-05-07T01:49:27.187Z,27.15
2023-05-07T01:51:54.561Z,28.15
2023-05-07T01:54:30.666Z,35.65
2023-05-07T01:56:59.037Z,26.45
2023-05-07T01:59:26.313Z,27.80
2023-05-07T02:01:54.030Z,28.38
2023-05-07T02:04:21.552Z,27.33
2023-05-07T02:06:48.875Z,26.73
2023-05-07T02:09:18.762Z,29.52
2023-05-07T02:11:48.656Z,26.37
2023-05-07T02:14:16.472Z,34.40
2023-05-07T02:16:46.696Z,26.95
2023-05-07T02:19:15.527Z,31.85
2023-05-07T02:21:42.998Z,28.85
2023-05-07T02:24:10.349Z,27.60
2023-05-07T02:26:37.558Z,22.08
2023-05-07T02:29:04.699Z,23.52
2023-05-07T02:31:32.543Z,28.05
2023-05-07T02:33:59.875Z,28.90
2023-05-07T02:36:27.650Z,26.30
2023-05-07T02:39:01.486Z,30.73
2023-05-07T02:41:29.114Z,27.00
2023-05-07T02:43:56.205Z,28.13
2023-05-07T02:46:23.820Z,28.90
2023-05-07T02:48:58.680Z,28.40
2023-05-07T02:51:28.161Z,25.77
2023-05-07T02:53:58.061Z,29.85
2023-05-07T02:56:28.007Z,22.95
2023-05-07T02:58:55.115Z,26.73
2023-05-07T03:01:24.937Z,24.60
2023-05-07T03:04:01.004Z,26.08
2023-05-07T03:06:33.910Z,24.13
2023-05-07T03:09:01.264Z,23.92
2023-05-07T03:11:28.737Z,22.25
2023-05-07T03:13:56.061Z,22.45
2023-05-07T03:16:23.647Z,22.42
2023-05-07T03:18:50.903Z,21.27
2023-05-07T03:21:18.129Z,22.48
2023-05-07T03:23:45.378Z,17.95
2023-05-07T03:26:12.609Z,19.65
2023-05-07T03:28:39.676Z,19.02
2023-05-07T03:31:11.262Z,18.88
2023-05-07T03:33:52.087Z,19.13
2023-05-07T03:36:19.236Z,20.20
2023-05-07T03:38:46.316Z,19.48
2023-05-07T03:41:13.856Z,22.73
2023-05-07T03:43:41.343Z,21.60
2023-05-07T03:46:11.469Z,20.45
2023-05-07T03:48:38.972Z,20.70
2023-05-07T03:51:07.156Z,22.83
2023-05-07T03:53:34.804Z,19.10
2023-05-07T03:56:02.264Z,19.70
2023-05-07T03:58:32.882Z,20.77
2023-05-07T04:01:05.027Z,21.77
2023-05-07T04:03:32.264Z,20.50
2023-05-07T04:06:01.331Z,22.13
2023-05-07T04:08:28.347Z,23.33
2023-05-07T04:11:01.394Z,23.23
2023-05-07T04:13:31.786Z,22.92
2023-05-07T04:16:03.270Z,24.83
2023-05-07T04:18:30.540Z,23.02
2023-05-07T04:20:58.686Z,21.08
2023-05-07T04:23:25.861Z,24.30
2023-05-07T04:25:55.440Z,25.95
2023-05-07T04:28:31.929Z,19.75
2023-05-07T04:30:59.182Z,23.73
2023-05-07T04:33:26.960Z,24.02
2023-05-07T04:36:21.330Z,25.55
2023-05-07T04:39:47.199Z,24.55
2023-05-07T04:42:19.571Z,22.23
2023-05-07T04:44:58.951Z,22.10
2023-05-07T04:47:29.155Z,22.63
2023-05-07T04:49:56.123Z,19.70
2023-05-07T04:52:23.799Z,30.20
2023-05-07T04:54:51.974Z,25.05
2023-05-07T04:57:19.054Z,24.67
2023-05-07T04:59:46.744Z,27.75
2023-05-07T05:02:13.798Z,28.77
2023-05-07T05:04:41.591Z,23.13
2023-05-07T05:07:09.753Z,22.17
2023-05-07T05:09:37.287Z,22.05
2023-05-07T05:12:04.770Z,24.48
2023-05-07T05:14:32.485Z,21.85
2023-05-07T05:16:59.681Z,22.48
2023-05-07T05:19:27.259Z,21.92
2023-05-07T05:21:54.623Z,21.70
2023-05-07T05:24:21.804Z,19.35
2023-05-07T05:26:49.449Z,20.15
2023-05-07T05:29:16.671Z,18.35
2023-05-07T05:31:49.497Z,19.85
2023-05-07T05:37:42.711Z,17.85
2023-05-07T05:40:10.966Z,17.60
2023-05-07T05:42:38.252Z,20.98
2023-05-07T05:45:06.779Z,23.20
2023-05-07T05:47:34.896Z,20.25
2023-05-07T05:50:02.620Z,24.55
2023-05-07T05:52:31.289Z,21.73
2023-05-07T05:54:58.695Z,25.63
2023-05-07T05:57:35.118Z,21.08
2023-05-07T06:00:44.974Z,28.95
2023-05-07T06:03:16.204Z,25.63
2023-05-07T06:05:43.924Z,27.48
2023-05-07T06:08:16.897Z,22.23
2023-05-07T06:10:46.871Z,23.88
2023-05-07T06:13:15.038Z,21.08
2023-05-07T06:15:42.899Z,21.63
2023-05-07T06:18:13.045Z,19.50
2023-05-07T06:20:40.968Z,19.58
2023-05-07T06:23:17.680Z,16.77
2023-05-07T06:25:51.532Z,17.42
2023-05-07T06:28:21.313Z,15.07
2023-05-07T06:30:51.023Z,18.27
2023-05-07T06:33:18.920Z,16.50
2023-05-07T06:35:46.198Z,15.20
2023-05-07T06:38:13.384Z,15.80
2023-05-07T06:40:41.329Z,17.33
2023-05-07T06:43:08.345Z,17.38
2023-05-07T06:45:43.531Z,15.93
2023-05-07T06:48:11.674Z,17.00
2023-05-07T06:50:49.897Z,14.90
2023-05-07T06:53:17.107Z,17.00
2023-05-07T06:55:44.597Z,15.80
2023-05-07T06:58:12.635Z,16.60
2023-05-07T07:00:41.870Z,15.18
2023-05-07T07:03:10.828Z,15.60
2023-05-07T07:05:38.559Z,14.88
2023-05-07T07:08:06.098Z,14.40
2023-05-07T07:10:33.482Z,13.52
2023-05-07T07:13:01.638Z,16.83
2023-05-07T07:15:32.361Z,13.32
2023-05-07T07:17:59.631Z,15.80
2023-05-07T07:20:26.792Z,19.40
2023-05-07T07:22:54.724Z,14.23
2023-05-07T07:25:22.071Z,15.07
2023-05-07T07:27:50.991Z,17.67
2023-05-07T07:30:18.201Z,14.00
2023-05-07T07:32:48.562Z,13.13
2023-05-07T07:35:17.494Z,11.88
2023-05-07T07:37:45.833Z,13.23
2023-05-07T07:40:15.628Z,10.10
2023-05-07T07:42:43.398Z,9.07
2023-05-07T07:45:12.131Z,10.80
2023-05-07T07:47:43.548Z,11.25
2023-05-07T07:50:12.732Z,8.52
2023-05-07T07:55:11.149Z,7.50
2023-05-07T07:57:39.155Z,8.68
2023-05-07T08:00:08.490Z,9.20
2023-05-07T08:02:44.083Z,10.05
2023-05-07T08:05:16.663Z,8.25
2023-05-07T08:07:53.110Z,7.85
2023-05-07T08:10:24.463Z,7.78
2023-05-07T08:12:58.122Z,8.75
2023-05-07T08:15:25.202Z,9.63
2023-05-07T08:17:52.327Z,9.10
2023-05-07T08:20:19.883Z,8.23
2023-05-07T08:22:47.045Z,7.13
2023-05-07T08:25:14.437Z,6.85
2023-05-07T08:27:41.573Z,7.90
2023-05-07T08:30:10.126Z,6.03
2023-05-07T08:32:37.376Z,8.93
2023-05-07T08:35:05.188Z,9.85
2023-05-07T08:37:58.118Z,7.25
2023-05-07T08:40:30.285Z,7.15
2023-05-07T08:43:01.338Z,6.15
2023-05-07T08:45:33.675Z,8.55
2023-05-07T08:48:06.117Z,5.75
2023-05-07T08:50:39.582Z,6.60
2023-05-07T08:53:07.292Z,5.53
2023-05-07T08:55:34.316Z,6.15
2023-05-07T08:58:04.621Z,7.28
2023-05-07T09:00:33.713Z,7.75
2023-05-07T09:03:05.148Z,6.93
2023-05-07T09:05:32.325Z,8.70
2023-05-07T09:08:08.538Z,6.95
2023-05-07T09:10:37.320Z,7.72
2023-05-07T09:13:06.284Z,9.68
2023-05-07T09:15:33.885Z,9.30
2023-05-07T09:18:04.688Z,10.48
2023-05-07T09:20:34.462Z,12.02
2023-05-07T09:23:02.951Z,10.38
2023-05-07T09:25:33.208Z,11.35
2023-05-07T09:28:08.187Z,12.02
2023-05-07T09:30:36.449Z,9.48
2023-05-07T09:33:06.279Z,8.93
2023-05-07T09:35:38.778Z,11.02
2023-05-07T09:38:10.309Z,13.70
2023-05-07T09:40:38.046Z,12.77
2023-05-07T09:43:12.937Z,12.40
2023-05-07T09:45:44.973Z,11.38
2023-05-07T09:48:17.932Z,13.70
2023-05-07T09:50:53.040Z,14.15
2023-05-07T09:53:24.999Z,12.13
2023-05-07T09:55:53.720Z,11.18
2023-05-07T09:58:24.746Z,13.45
2023-05-07T10:00:53.842Z,10.70
2023-05-07T10:03:23.501Z,12.68
2023-05-07T10:06:00.440Z,9.80
2023-05-07T10:08:28.763Z,11.95
2023-05-07T10:11:00.293Z,8.98
2023-05-07T10:13:30.652Z,10.15
2023-05-07T10:16:01.791Z,11.27
2023-05-07T10:18:35.093Z,14.38
2023-05-07T10:21:20.500Z,16.13
2023-05-07T10:24:02.610Z,8.70
2023-05-07T10:26:34.832Z,13.48
2023-05-07T10:29:22.487Z,11.95
2023-05-07T10:32:37.205Z,10.00
2023-05-07T10:35:53.433Z,12.25
2023-05-07T10:55:26.260Z,10.85
2023-05-07T10:58:33.105Z,10.25
2023-05-07T11:02:08.599Z,12.27
2023-05-07T11:05:23.484Z,12.20
2023-05-07T11:08:04.666Z,13.68
2023-05-07T11:10:59.593Z,9.63
2023-05-07T11:13:47.097Z,9.20
2023-05-07T11:16:32.020Z,8.48
2023-05-07T11:19:11.333Z,12.73
2023-05-07T11:21:44.161Z,8.75
2023-05-07T11:24:56.493Z,11.85
2023-05-07T11:27:30.817Z,9.38
2023-05-07T11:29:58.342Z,8.82
2023-05-07T11:32:32.992Z,8.23
2023-05-07T11:35:05.121Z,8.13
2023-05-07T11:37:32.333Z,14.30
2023-05-07T11:40:14.851Z,8.93
2023-05-07T11:42:46.249Z,8.63
2023-05-07T11:45:26.447Z,10.13
2023-05-07T11:47:53.763Z,8.27
2023-05-07T11:50:21.603Z,7.88
2023-05-07T11:52:53.440Z,9.38
2023-05-07T11:55:20.962Z,9.60
2023-05-07T11:57:48.290Z,9.95
2023-05-07T12:00:18.290Z,9.60
2023-05-07T12:02:49.193Z,10.00
2023-05-07T12:05:17.628Z,8.93
2023-05-07T12:07:44.768Z,11.10
2023-05-07T12:10:14.130Z,12.35
2023-05-07T12:12:43.061Z,12.20
2023-05-07T12:15:12.857Z,8.32
2023-05-07T12:17:45.342Z,12.20
2023-05-07T12:20:13.449Z,8.77
2023-05-07T12:22:40.563Z,7.85
2023-05-07T12:25:08.583Z,7.07
2023-05-07T12:27:40.093Z,8.80
2023-05-07T12:30:11.449Z,8.00
2023-05-07T12:32:38.567Z,8.70
2023-05-07T12:35:08.370Z,9.23
2023-05-07T12:37:37.196Z,8.32
2023-05-07T12:40:12.265Z,9.98
2023-05-07T12:42:41.539Z,8.27
2023-05-07T12:45:19.209Z,12.30
2023-05-07T12:47:47.796Z,8.05
2023-05-07T12:50:16.553Z,7.88
2023-05-07T12:52:53.463Z,10.80
2023-05-07T12:55:20.536Z,9.30
2023-05-07T12:57:51.561Z,7.68
2023-05-07T13:00:33.938Z,7.30
2023-05-07T13:03:01.333Z,9.25
2023-05-07T13:05:30.149Z,8.45
2023-05-07T13:07:58.014Z,9.52
2023-05-07T13:10:26.637Z,8.02
2023-05-07T13:12:54.059Z,7.32
2023-05-07T13:15:23.134Z,7.90
2023-05-07T13:17:50.227Z,10.48
2023-05-07T13:20:17.219Z,6.65
2023-05-07T13:22:44.790Z,7.95
2023-05-07T13:25:12.072Z,6.93
2023-05-07T13:27:39.457Z,6.75
2023-05-07T13:30:08.029Z,7.50
2023-05-07T13:32:35.473Z,7.18
2023-05-07T13:35:02.944Z,7.03
2023-05-07T13:37:30.002Z,9.50
2023-05-07T13:39:57.344Z,7.60
2023-05-07T13:42:24.378Z,8.13
2023-05-07T13:44:51.396Z,8.02
2023-05-07T13:47:18.426Z,7.57
2023-05-07T13:49:50.489Z,7.93
2023-05-07T13:52:18.663Z,6.57
2023-05-07T13:54:48.094Z,7.15
2023-05-07T13:57:15.502Z,6.05
2023-05-07T13:59:42.596Z,6.63
2023-05-07T14:02:10.232Z,5.93
2023-05-07T14:04:38.803Z,6.80
2023-05-07T14:07:06.153Z,6.85
2023-05-07T14:09:33.371Z,8.95
2023-05-07T14:12:01.183Z,6.93
2023-05-07T14:14:28.756Z,5.32
2023-05-07T14:16:56.182Z,6.88
2023-05-07T14:19:23.809Z,7.47
2023-05-07T14:21:50.800Z,6.85
2023-05-07T14:24:30.824Z,5.40
2023-05-07T14:27:06.888Z,5.85
2023-05-07T14:29:34.199Z,6.32
2023-05-07T14:32:01.190Z,5.57
2023-05-07T14:34:28.611Z,7.22
2023-05-07T14:36:56.634Z,5.88
2023-05-07T14:39:23.578Z,6.25
2023-05-07T14:41:50.738Z,9.85
2023-05-07T14:44:17.715Z,6.13
2023-05-07T14:46:44.904Z,4.20
2023-05-07T14:49:17.884Z,5.15
2023-05-07T14:51:46.688Z,3.55
2023-05-07T14:54:16.902Z,6.45
2023-05-07T14:56:45.490Z,3.33
2023-05-07T14:59:12.824Z,7.13
2023-05-07T15:01:43.563Z,5.97
2023-05-07T15:04:10.718Z,6.28
2023-05-07T15:06:37.881Z,5.63
2023-05-07T15:09:04.928Z,6.70
2023-05-07T15:11:31.905Z,4.70
2023-05-07T15:13:58.897Z,7.25
2023-05-07T15:16:26.253Z,7.07
2023-05-07T15:18:53.687Z,7.47
2023-05-07T15:21:23.797Z,10.90
2023-05-07T15:23:51.195Z,7.05
2023-05-07T15:26:21.515Z,4.65
2023-05-07T15:28:48.523Z,5.97
2023-05-07T15:31:17.494Z,4.88
2023-05-07T15:33:45.656Z,6.20
2023-05-07T15:36:12.696Z,6.47
2023-05-07T15:38:39.749Z,8.85
2023-05-07T15:41:06.792Z,7.15
2023-05-07T15:43:48.070Z,8.73
2023-05-07T15:46:20.186Z,6.93
2023-05-07T15:48:47.628Z,7.85
2023-05-07T15:51:14.716Z,7.63
2023-05-07T15:53:42.441Z,7.10
2023-05-07T15:56:09.758Z,7.80
2023-05-07T15:58:37.281Z,9.50
2023-05-07T16:01:05.627Z,8.40
2023-05-07T16:03:33.081Z,9.07
2023-05-07T16:06:03.161Z,8.10
2023-05-07T16:08:30.733Z,9.70
2023-05-07T16:10:57.944Z,11.32
2023-05-07T16:13:25.165Z,7.97
2023-05-07T16:15:59.520Z,7.20
2023-05-07T16:18:41.962Z,7.85
2023-05-07T16:21:09.789Z,8.82
2023-05-07T16:23:38.056Z,8.90
2023-05-07T16:26:13.645Z,8.20
2023-05-07T16:28:40.993Z,10.05
2023-05-07T16:31:09.269Z,8.27
2023-05-07T16:33:39.694Z,8.27
2023-05-07T16:36:07.583Z,10.43
2023-05-07T16:38:34.846Z,9.80
2023-05-07T16:41:02.101Z,11.70
2023-05-07T16:43:29.370Z,11.00
2023-05-07T16:45:56.390Z,10.43
2023-05-07T16:48:23.546Z,12.43
2023-05-07T16:50:50.502Z,9.40
2023-05-07T16:53:17.554Z,12.43
2023-05-07T16:55:44.521Z,8.23
2023-05-07T16:58:12.677Z,7.72
2023-05-07T17:00:49.821Z,9.63
2023-05-07T17:03:19.494Z,7.60
2023-05-07T17:05:46.971Z,9.63
2023-05-07T17:08:16.372Z,8.27
2023-05-07T17:10:43.386Z,7.05
2023-05-07T17:13:10.512Z,11.07
2023-05-07T17:15:37.446Z,9.50
2023-05-07T17:18:04.663Z,7.85
2023-05-07T17:20:31.661Z,9.43
2023-05-07T17:22:58.945Z,8.95
2023-05-07T17:25:26.482Z,9.18
2023-05-07T17:27:53.500Z,7.50
2023-05-07T17:30:20.832Z,12.30
2023-05-07T17:32:48.166Z,9.63
2023-05-07T17:35:15.277Z,10.90
2023-05-07T17:37:46.842Z,8.80
2023-05-07T17:40:14.246Z,13.63
2023-05-07T17:42:41.306Z,8.95
2023-05-07T17:45:09.091Z,8.27
2023-05-07T17:47:36.161Z,9.98
2023-05-07T17:50:05.909Z,14.82
2023-05-07T17:52:33.014Z,9.60
2023-05-07T17:55:00.043Z,7.90
2023-05-07T17:57:27.886Z,8.18
2023-05-07T17:59:55.126Z,9.23
2023-05-07T18:02:22.431Z,8.57
2023-05-07T18:04:49.446Z,7.90
2023-05-07T18:07:16.368Z,7.78
2023-05-07T18:09:43.401Z,7.32
2023-05-07T18:12:10.473Z,7.68
2023-05-07T18:14:37.480Z,10.57
2023-05-07T18:17:04.595Z,6.30
2023-05-07T18:19:31.720Z,7.15
2023-05-07T18:21:58.806Z,7.32
2023-05-07T18:24:27.402Z,9.55
2023-05-07T18:26:54.759Z,13.25
2023-05-07T18:29:22.012Z,8.32
2023-05-07T18:31:49.104Z,8.25
2023-05-07T18:34:16.212Z,11.32
2023-05-07T18:36:43.283Z,8.50
2023-05-07T18:39:10.444Z,10.18
2023-05-07T18:41:37.415Z,8.57
2023-05-07T18:44:04.633Z,10.93
2023-05-07T18:46:31.603Z,13.98
2023-05-07T18:48:58.550Z,10.50
2023-05-07T18:51:25.635Z,10.35
2023-05-07T18:53:53.765Z,8.25
2023-05-07T18:56:21.623Z,10.32
2023-05-07T18:58:48.662Z,8.80
2023-05-07T19:01:16.281Z,13.18
2023-05-07T19:03:43.580Z,10.57
2023-05-07T19:06:10.739Z,12.05
2023-05-07T19:08:37.806Z,12.82
2023-05-07T19:11:07.294Z,11.13
2023-05-07T19:13:34.464Z,12.00
2023-05-07T19:16:01.725Z,11.48
2023-05-07T19:18:30.496Z,13.75
2023-05-07T19:20:57.551Z,12.40
2023-05-07T19:23:24.733Z,11.48
2023-05-07T19:25:52.143Z,11.48
2023-05-07T19:28:21.014Z,11.00
2023-05-07T19:30:49.861Z,13.43
2023-05-07T19:33:20.515Z,10.90
2023-05-07T19:35:53.186Z,12.73
2023-05-07T19:38:20.716Z,11.20
2023-05-07T19:40:49.877Z,9.10
2023-05-07T19:43:17.207Z,14.07
2023-05-07T19:45:44.673Z,10.45
2023-05-07T19:48:15.723Z,12.23
2023-05-07T19:50:51.456Z,11.63
2023-05-07T19:53:18.817Z,13.38
2023-05-07T19:55:46.300Z,11.63
2023-05-07T19:58:16.690Z,11.73
2023-05-07T20:00:44.793Z,11.32
2023-05-07T20:03:18.262Z,11.95
2023-05-07T20:06:13.157Z,11.98
2023-05-07T20:08:40.267Z,12.70
2023-05-07T20:11:13.461Z,13.35
2023-05-07T20:13:40.518Z,11.93
2023-05-07T20:16:10.905Z,9.75
2023-05-07T20:18:38.048Z,10.90
2023-05-07T20:21:05.778Z,9.38
2023-05-07T20:23:37.200Z,11.05
2023-05-07T20:26:12.746Z,10.67
2023-05-07T20:28:46.733Z,11.20
2023-05-07T20:31:17.843Z,10.80
2023-05-07T20:34:39.516Z,9.55
2023-05-07T20:37:06.867Z,11.02
2023-05-07T20:39:34.152Z,9.50
2023-05-07T20:42:01.515Z,12.32
2023-05-07T20:44:32.299Z,9.23
2023-05-07T20:46:59.732Z,9.48
2023-05-07T20:49:26.916Z,9.15
2023-05-07T20:51:54.127Z,11.55
2023-05-07T20:54:23.067Z,9.70
2023-05-07T20:56:50.838Z,10.52
2023-05-07T20:59:21.042Z,7.72
2023-05-07T21:01:48.140Z,7.65
2023-05-07T21:04:15.410Z,10.25
2023-05-07T21:06:43.607Z,7.90
2023-05-07T21:09:11.213Z,9.38
2023-05-07T21:11:38.218Z,9.70
2023-05-07T21:14:05.746Z,9.23
2023-05-07T21:16:32.868Z,8.15
2023-05-07T21:18:59.960Z,8.75
2023-05-07T21:21:28.162Z,8.10
2023-05-07T21:23:55.162Z,7.60
2023-05-07T21:26:22.688Z,9.43
2023-05-07T21:28:50.208Z,9.27
2023-05-07T21:31:17.297Z,8.68
2023-05-07T21:33:44.604Z,10.07
2023-05-07T21:36:12.208Z,8.40
2023-05-07T21:38:40.817Z,9.55
2023-05-07T21:41:08.009Z,8.50
2023-05-07T21:43:34.970Z,9.20
2023-05-07T21:46:05.919Z,11.27
2023-05-07T21:48:33.097Z,9.77
2023-05-07T21:51:08.467Z,11.88
2023-05-07T21:53:36.078Z,10.75
2023-05-07T21:56:05.067Z,13.05
2023-05-07T21:58:34.808Z,10.70
2023-05-07T22:01:02.028Z,10.05
2023-05-07T22:03:29.837Z,10.95
2023-05-07T22:05:56.869Z,8.27
2023-05-07T22:08:24.156Z,11.18
2023-05-07T22:10:51.347Z,11.25
2023-05-07T22:13:18.430Z,9.25
2023-05-07T22:15:56.844Z,8.82
2023-05-07T22:18:27.917Z,9.52
2023-05-07T22:20:55.227Z,11.40
2023-05-07T22:23:22.311Z,8.45
2023-05-07T22:25:51.938Z,10.10
2023-05-07T22:28:19.129Z,10.73
2023-05-07T22:30:46.079Z,10.77
2023-05-07T22:33:13.430Z,10.82
2023-05-07T22:35:40.685Z,10.13
2023-05-07T22:38:07.634Z,10.45
2023-05-07T22:40:35.904Z,12.65
2023-05-07T22:43:02.902Z,9.05
2023-05-07T22:45:29.985Z,9.32
2023-05-07T22:47:57.301Z,10.10
2023-05-07T22:50:24.439Z,12.45
2023-05-07T22:52:51.535Z,9.88
2023-05-07T22:55:19.094Z,8.65
2023-05-07T22:57:46.214Z,9.60
2023-05-07T23:00:14.631Z,8.95
2023-05-07T23:02:42.139Z,11.75
2023-05-07T23:05:09.449Z,10.82
2023-05-07T23:07:36.572Z,9.73
2023-05-07T23:10:04.957Z,9.60
2023-05-07T23:12:32.291Z,8.90
2023-05-07T23:14:59.241Z,10.80
2023-05-07T23:17:26.210Z,13.27
2023-05-07T23:19:53.508Z,11.73
2023-05-07T23:22:20.584Z,13.15
2023-05-07T23:24:47.650Z,11.60
2023-05-07T23:27:14.628Z,13.00
2023-05-07T23:29:42.109Z,11.55
2023-05-07T23:32:09.064Z,9.20
2023-05-07T23:34:36.094Z,12.27
2023-05-07T23:37:03.189Z,12.85
2023-05-07T23:39:30.526Z,9.55
2023-05-07T23:41:57.576Z,13.43
2023-05-07T23:44:24.621Z,12.75
2023-05-07T23:46:51.703Z,10.68
2023-05-07T23:49:18.810Z,10.63
2023-05-07T23:51:57.734Z,14.02
2023-05-07T23:54:24.723Z,15.82
2023-05-07T23:58:01.994Z,12.35
